Terminal Aerodrome Forecast
Issued by NWS

Home | Current Version | Previous Version | Text Only | Print | Product List | Glossary On
Versions: 1 2 3 4 5 6 7 8 9 10 11 12 13 14 15 16 17
000
FTUS42 KTAE 291130
TAFABY
TAF
KABY 291130Z 2912/3012 02005KT P6SM OVC080
     FM291400 08006KT P6SM SCT070
     FM291800 12005KT P6SM SKC=

USA.gov is the U.S. government's official web portal to all federal, state and local government web resources and services.